sensor_id;sensor_type;location;lat;lon;timestamp;P1;durP1;ratioP1;P2;durP2;ratioP2
11604;SDS011;5858;43.076;25.626;2022-09-09T00:00:23;3.42;;;2.45;;
11604;SDS011;5858;43.076;25.626;2022-09-09T00:02:54;2.20;;;1.90;;
11604;SDS011;5858;43.076;25.626;2022-09-09T00:05:29;4.97;;;2.22;;
11604;SDS011;5858;43.076;25.626;2022-09-09T00:08:04;2.33;;;2.03;;
11604;SDS011;5858;43.076;25.626;2022-09-09T00:10:39;2.63;;;2.00;;
11604;SDS011;5858;43.076;25.626;2022-09-09T00:13:10;1.85;;;1.55;;
11604;SDS011;5858;43.076;25.626;2022-09-09T00:15:44;2.30;;;1.98;;
11604;SDS011;5858;43.076;25.626;2022-09-09T00:18:23;3.65;;;2.10;;
11604;SDS011;5858;43.076;25.626;2022-09-09T00:20:55;2.85;;;1.85;;
11604;SDS011;5858;43.076;25.626;2022-09-09T00:23:32;2.00;;;1.80;;
11604;SDS011;5858;43.076;25.626;2022-09-09T00:26:04;2.00;;;1.70;;
11604;SDS011;5858;43.076;25.626;2022-09-09T00:28:39;3.20;;;2.20;;
11604;SDS011;5858;43.076;25.626;2022-09-09T00:31:13;2.92;;;1.90;;
11604;SDS011;5858;43.076;25.626;2022-09-09T00:33:43;2.58;;;2.05;;
11604;SDS011;5858;43.076;25.626;2022-09-09T00:36:12;3.28;;;2.10;;
11604;SDS011;5858;43.076;25.626;2022-09-09T00:38:44;3.55;;;1.85;;
11604;SDS011;5858;43.076;25.626;2022-09-09T00:41:17;4.93;;;2.20;;
11604;SDS011;5858;43.076;25.626;2022-09-09T00:43:51;2.95;;;2.22;;
11604;SDS011;5858;43.076;25.626;2022-09-09T00:49:34;2.47;;;1.80;;
11604;SDS011;5858;43.076;25.626;2022-09-09T00:52:18;1.70;;;1.55;;
11604;SDS011;5858;43.076;25.626;2022-09-09T00:54:55;2.33;;;2.00;;
11604;SDS011;5858;43.076;25.626;2022-09-09T00:57:29;2.63;;;1.80;;
11604;SDS011;5858;43.076;25.626;2022-09-09T00:59:59;2.03;;;1.83;;
11604;SDS011;5858;43.076;25.626;2022-09-09T01:02:45;3.60;;;1.92;;
11604;SDS011;5858;43.076;25.626;2022-09-09T01:05:25;1.95;;;1.73;;
11604;SDS011;5858;43.076;25.626;2022-09-09T01:08:03;3.05;;;1.88;;
11604;SDS011;5858;43.076;25.626;2022-09-09T01:10:39;5.45;;;1.90;;
11604;SDS011;5858;43.076;25.626;2022-09-09T01:13:13;1.95;;;1.70;;
11604;SDS011;5858;43.076;25.626;2022-09-09T01:15:47;2.85;;;1.90;;
11604;SDS011;5858;43.076;25.626;2022-09-09T01:18:15;2.25;;;1.83;;
11604;SDS011;5858;43.076;25.626;2022-09-09T01:20:47;2.67;;;1.80;;
11604;SDS011;5858;43.076;25.626;2022-09-09T01:26:27;3.33;;;1.65;;
11604;SDS011;5858;43.076;25.626;2022-09-09T01:28:57;2.72;;;1.80;;
11604;SDS011;5858;43.076;25.626;2022-09-09T01:31:26;2.58;;;1.83;;
11604;SDS011;5858;43.076;25.626;2022-09-09T01:33:56;3.10;;;1.80;;
11604;SDS011;5858;43.076;25.626;2022-09-09T01:36:27;2.30;;;2.10;;
11604;SDS011;5858;43.076;25.626;2022-09-09T01:39:01;2.13;;;1.92;;
11604;SDS011;5858;43.076;25.626;2022-09-09T01:41:30;2.13;;;1.75;;
11604;SDS011;5858;43.076;25.626;2022-09-09T01:43:58;1.80;;;1.67;;
11604;SDS011;5858;43.076;25.626;2022-09-09T01:46:25;2.97;;;1.77;;
11604;SDS011;5858;43.076;25.626;2022-09-09T01:48:54;2.53;;;2.10;;
11604;SDS011;5858;43.076;25.626;2022-09-09T01:51:23;2.22;;;1.60;;
11604;SDS011;5858;43.076;25.626;2022-09-09T01:53:50;5.25;;;1.85;;
11604;SDS011;5858;43.076;25.626;2022-09-09T01:56:27;3.00;;;2.00;;
11604;SDS011;5858;43.076;25.626;2022-09-09T01:59:18;2.30;;;1.85;;
11604;SDS011;5858;43.076;25.626;2022-09-09T02:02:03;4.03;;;2.30;;
11604;SDS011;5858;43.076;25.626;2022-09-09T02:04:37;2.67;;;1.65;;
11604;SDS011;5858;43.076;25.626;2022-09-09T02:07:07;1.90;;;1.63;;
11604;SDS011;5858;43.076;25.626;2022-09-09T02:09:42;3.70;;;1.95;;
11604;SDS011;5858;43.076;25.626;2022-09-09T02:12:14;3.38;;;1.60;;
11604;SDS011;5858;43.076;25.626;2022-09-09T02:14:46;2.53;;;1.90;;
11604;SDS011;5858;43.076;25.626;2022-09-09T02:17:19;4.53;;;1.98;;
11604;SDS011;5858;43.076;25.626;2022-09-09T02:19:54;3.67;;;2.10;;
11604;SDS011;5858;43.076;25.626;2022-09-09T02:22:27;2.15;;;1.90;;
11604;SDS011;5858;43.076;25.626;2022-09-09T02:24:57;2.55;;;1.92;;
11604;SDS011;5858;43.076;25.626;2022-09-09T02:27:26;3.03;;;2.03;;
11604;SDS011;5858;43.076;25.626;2022-09-09T02:29:55;2.13;;;1.92;;
11604;SDS011;5858;43.076;25.626;2022-09-09T02:32:27;2.55;;;1.92;;
11604;SDS011;5858;43.076;25.626;2022-09-09T02:35:00;5.32;;;2.55;;
11604;SDS011;5858;43.076;25.626;2022-09-09T02:37:33;2.65;;;2.45;;
11604;SDS011;5858;43.076;25.626;2022-09-09T02:40:04;4.95;;;2.53;;
11604;SDS011;5858;43.076;25.626;2022-09-09T02:42:40;5.10;;;2.15;;
11604;SDS011;5858;43.076;25.626;2022-09-09T02:45:09;4.50;;;2.45;;
11604;SDS011;5858;43.076;25.626;2022-09-09T02:47:38;3.70;;;2.33;;
11604;SDS011;5858;43.076;25.626;2022-09-09T02:50:15;2.83;;;2.42;;
11604;SDS011;5858;43.076;25.626;2022-09-09T02:52:51;2.50;;;1.92;;
11604;SDS011;5858;43.076;25.626;2022-09-09T02:55:30;3.33;;;2.55;;
11604;SDS011;5858;43.076;25.626;2022-09-09T02:58:04;3.75;;;2.08;;
11604;SDS011;5858;43.076;25.626;2022-09-09T03:00:36;4.05;;;2.40;;
11604;SDS011;5858;43.076;25.626;2022-09-09T03:03:04;3.20;;;2.50;;
11604;SDS011;5858;43.076;25.626;2022-09-09T03:05:32;3.78;;;2.70;;
11604;SDS011;5858;43.076;25.626;2022-09-09T03:08:07;4.82;;;2.97;;
11604;SDS011;5858;43.076;25.626;2022-09-09T03:10:57;5.18;;;2.80;;
11604;SDS011;5858;43.076;25.626;2022-09-09T03:13:28;8.32;;;3.50;;
11604;SDS011;5858;43.076;25.626;2022-09-09T03:15:55;5.15;;;3.10;;
11604;SDS011;5858;43.076;25.626;2022-09-09T03:18:23;3.63;;;2.47;;
11604;SDS011;5858;43.076;25.626;2022-09-09T03:20:50;2.90;;;1.92;;
11604;SDS011;5858;43.076;25.626;2022-09-09T03:23:19;5.53;;;2.05;;
11604;SDS011;5858;43.076;25.626;2022-09-09T03:25:49;3.65;;;2.67;;
11604;SDS011;5858;43.076;25.626;2022-09-09T03:28:22;3.40;;;2.30;;
11604;SDS011;5858;43.076;25.626;2022-09-09T03:30:59;3.97;;;2.63;;
11604;SDS011;5858;43.076;25.626;2022-09-09T03:33:30;6.00;;;2.70;;
11604;SDS011;5858;43.076;25.626;2022-09-09T03:35:57;8.23;;;3.08;;
11604;SDS011;5858;43.076;25.626;2022-09-09T03:38:28;3.13;;;2.63;;
11604;SDS011;5858;43.076;25.626;2022-09-09T03:40:55;7.18;;;3.25;;
11604;SDS011;5858;43.076;25.626;2022-09-09T03:43:34;4.32;;;2.75;;
11604;SDS011;5858;43.076;25.626;2022-09-09T03:46:05;5.70;;;2.47;;
11604;SDS011;5858;43.076;25.626;2022-09-09T03:48:36;3.80;;;2.53;;
11604;SDS011;5858;43.076;25.626;2022-09-09T03:51:03;6.28;;;2.85;;
11604;SDS011;5858;43.076;25.626;2022-09-09T03:53:37;4.85;;;2.95;;
11604;SDS011;5858;43.076;25.626;2022-09-09T03:56:08;5.22;;;2.50;;
11604;SDS011;5858;43.076;25.626;2022-09-09T03:58:40;2.65;;;2.30;;
11604;SDS011;5858;43.076;25.626;2022-09-09T04:01:19;4.68;;;2.45;;
11604;SDS011;5858;43.076;25.626;2022-09-09T04:03:48;5.05;;;2.97;;
11604;SDS011;5858;43.076;25.626;2022-09-09T04:06:20;3.92;;;2.40;;
11604;SDS011;5858;43.076;25.626;2022-09-09T04:08:48;5.38;;;3.08;;
11604;SDS011;5858;43.076;25.626;2022-09-09T04:11:18;6.15;;;3.42;;
11604;SDS011;5858;43.076;25.626;2022-09-09T04:13:48;5.28;;;2.95;;
11604;SDS011;5858;43.076;25.626;2022-09-09T04:16:17;6.32;;;2.92;;
11604;SDS011;5858;43.076;25.626;2022-09-09T04:18:47;4.90;;;2.47;;
11604;SDS011;5858;43.076;25.626;2022-09-09T04:21:14;4.97;;;3.22;;
11604;SDS011;5858;43.076;25.626;2022-09-09T04:23:42;4.55;;;3.63;;
11604;SDS011;5858;43.076;25.626;2022-09-09T04:26:27;6.75;;;3.17;;
11604;SDS011;5858;43.076;25.626;2022-09-09T04:28:58;5.22;;;3.42;;
11604;SDS011;5858;43.076;25.626;2022-09-09T04:31:31;5.43;;;3.42;;
11604;SDS011;5858;43.076;25.626;2022-09-09T04:33:59;6.90;;;3.30;;
11604;SDS011;5858;43.076;25.626;2022-09-09T04:36:30;6.80;;;3.42;;
11604;SDS011;5858;43.076;25.626;2022-09-09T04:38:58;6.57;;;2.97;;
11604;SDS011;5858;43.076;25.626;2022-09-09T04:41:28;6.78;;;2.83;;
11604;SDS011;5858;43.076;25.626;2022-09-09T04:43:59;5.85;;;2.60;;
11604;SDS011;5858;43.076;25.626;2022-09-09T04:46:36;4.18;;;2.53;;
11604;SDS011;5858;43.076;25.626;2022-09-09T04:49:03;3.92;;;2.65;;
11604;SDS011;5858;43.076;25.626;2022-09-09T04:51:31;6.90;;;2.60;;
11604;SDS011;5858;43.076;25.626;2022-09-09T04:53:58;2.83;;;2.20;;
11604;SDS011;5858;43.076;25.626;2022-09-09T04:56:25;3.50;;;2.10;;
11604;SDS011;5858;43.076;25.626;2022-09-09T04:58:53;2.88;;;2.50;;
11604;SDS011;5858;43.076;25.626;2022-09-09T05:01:21;6.28;;;3.75;;
11604;SDS011;5858;43.076;25.626;2022-09-09T05:03:51;6.68;;;3.10;;
11604;SDS011;5858;43.076;25.626;2022-09-09T05:06:18;4.15;;;2.70;;
11604;SDS011;5858;43.076;25.626;2022-09-09T05:08:47;3.15;;;1.65;;
11604;SDS011;5858;43.076;25.626;2022-09-09T05:11:15;2.40;;;1.88;;
11604;SDS011;5858;43.076;25.626;2022-09-09T05:13:43;2.28;;;1.63;;
11604;SDS011;5858;43.076;25.626;2022-09-09T05:16:15;3.78;;;2.00;;
11604;SDS011;5858;43.076;25.626;2022-09-09T05:18:45;3.00;;;1.63;;
11604;SDS011;5858;43.076;25.626;2022-09-09T05:21:15;2.47;;;1.88;;
11604;SDS011;5858;43.076;25.626;2022-09-09T05:23:47;4.00;;;2.33;;
11604;SDS011;5858;43.076;25.626;2022-09-09T05:26:26;3.10;;;1.88;;
11604;SDS011;5858;43.076;25.626;2022-09-09T05:28:54;4.95;;;2.13;;
11604;SDS011;5858;43.076;25.626;2022-09-09T05:31:22;6.45;;;2.22;;
11604;SDS011;5858;43.076;25.626;2022-09-09T05:33:52;4.55;;;2.33;;
11604;SDS011;5858;43.076;25.626;2022-09-09T05:36:21;5.00;;;2.33;;
11604;SDS011;5858;43.076;25.626;2022-09-09T05:42:11;2.53;;;2.33;;
11604;SDS011;5858;43.076;25.626;2022-09-09T05:44:38;3.13;;;2.35;;
11604;SDS011;5858;43.076;25.626;2022-09-09T05:50:02;5.15;;;2.50;;
11604;SDS011;5858;43.076;25.626;2022-09-09T05:52:46;4.45;;;2.20;;
11604;SDS011;5858;43.076;25.626;2022-09-09T05:55:15;4.78;;;2.35;;
11604;SDS011;5858;43.076;25.626;2022-09-09T05:57:48;2.92;;;2.08;;
11604;SDS011;5858;43.076;25.626;2022-09-09T06:00:17;2.78;;;1.63;;
11604;SDS011;5858;43.076;25.626;2022-09-09T06:02:50;3.75;;;2.47;;
11604;SDS011;5858;43.076;25.626;2022-09-09T06:05:18;3.10;;;2.00;;
11604;SDS011;5858;43.076;25.626;2022-09-09T06:07:49;6.53;;;2.25;;
11604;SDS011;5858;43.076;25.626;2022-09-09T06:10:18;2.60;;;1.80;;
11604;SDS011;5858;43.076;25.626;2022-09-09T06:12:48;3.22;;;1.83;;
11604;SDS011;5858;43.076;25.626;2022-09-09T06:15:20;1.98;;;1.67;;
11604;SDS011;5858;43.076;25.626;2022-09-09T06:17:53;2.88;;;2.17;;
11604;SDS011;5858;43.076;25.626;2022-09-09T06:20:21;2.42;;;1.67;;
11604;SDS011;5858;43.076;25.626;2022-09-09T06:22:51;2.33;;;1.70;;
11604;SDS011;5858;43.076;25.626;2022-09-09T06:25:18;2.28;;;1.65;;
11604;SDS011;5858;43.076;25.626;2022-09-09T06:27:48;2.00;;;1.73;;
11604;SDS011;5858;43.076;25.626;2022-09-09T06:30:16;3.80;;;2.28;;
11604;SDS011;5858;43.076;25.626;2022-09-09T06:32:48;3.83;;;1.73;;
11604;SDS011;5858;43.076;25.626;2022-09-09T06:35:16;2.55;;;1.48;;
11604;SDS011;5858;43.076;25.626;2022-09-09T06:37:44;2.28;;;1.63;;
11604;SDS011;5858;43.076;25.626;2022-09-09T06:40:15;1.80;;;1.63;;
11604;SDS011;5858;43.076;25.626;2022-09-09T06:42:46;2.63;;;1.52;;
11604;SDS011;5858;43.076;25.626;2022-09-09T06:45:16;2.22;;;1.98;;
11604;SDS011;5858;43.076;25.626;2022-09-09T06:47:43;2.08;;;1.88;;
11604;SDS011;5858;43.076;25.626;2022-09-09T06:50:12;2.45;;;2.28;;
11604;SDS011;5858;43.076;25.626;2022-09-09T06:52:40;2.28;;;1.80;;
11604;SDS011;5858;43.076;25.626;2022-09-09T06:55:07;5.82;;;3.08;;
11604;SDS011;5858;43.076;25.626;2022-09-09T06:57:36;9.65;;;5.28;;
11604;SDS011;5858;43.076;25.626;2022-09-09T07:00:07;6.00;;;2.75;;
11604;SDS011;5858;43.076;25.626;2022-09-09T07:02:35;3.75;;;2.67;;
11604;SDS011;5858;43.076;25.626;2022-09-09T07:05:05;2.97;;;2.60;;
11604;SDS011;5858;43.076;25.626;2022-09-09T07:07:36;3.80;;;3.17;;
11604;SDS011;5858;43.076;25.626;2022-09-09T07:10:03;2.03;;;1.77;;
11604;SDS011;5858;43.076;25.626;2022-09-09T07:12:37;2.58;;;2.10;;
11604;SDS011;5858;43.076;25.626;2022-09-09T07:15:06;2.13;;;1.92;;
11604;SDS011;5858;43.076;25.626;2022-09-09T07:17:34;3.20;;;2.35;;
11604;SDS011;5858;43.076;25.626;2022-09-09T07:20:02;5.00;;;3.00;;
11604;SDS011;5858;43.076;25.626;2022-09-09T07:22:30;3.72;;;3.33;;
11604;SDS011;5858;43.076;25.626;2022-09-09T07:24:58;4.40;;;2.38;;
11604;SDS011;5858;43.076;25.626;2022-09-09T07:27:25;2.33;;;2.13;;
11604;SDS011;5858;43.076;25.626;2022-09-09T07:29:54;3.65;;;2.45;;
11604;SDS011;5858;43.076;25.626;2022-09-09T07:32:22;3.40;;;1.77;;
11604;SDS011;5858;43.076;25.626;2022-09-09T07:34:52;4.60;;;2.00;;
11604;SDS011;5858;43.076;25.626;2022-09-09T07:37:19;2.53;;;1.85;;
11604;SDS011;5858;43.076;25.626;2022-09-09T07:39:47;2.22;;;1.73;;
11604;SDS011;5858;43.076;25.626;2022-09-09T07:42:16;2.60;;;1.88;;
11604;SDS011;5858;43.076;25.626;2022-09-09T07:44:50;2.67;;;1.75;;
11604;SDS011;5858;43.076;25.626;2022-09-09T07:47:21;2.08;;;1.88;;
11604;SDS011;5858;43.076;25.626;2022-09-09T07:49:50;3.10;;;1.80;;
11604;SDS011;5858;43.076;25.626;2022-09-09T07:52:17;3.80;;;2.08;;
11604;SDS011;5858;43.076;25.626;2022-09-09T07:54:45;2.85;;;1.92;;
11604;SDS011;5858;43.076;25.626;2022-09-09T07:57:12;2.58;;;1.95;;
11604;SDS011;5858;43.076;25.626;2022-09-09T07:59:40;2.67;;;2.00;;
11604;SDS011;5858;43.076;25.626;2022-09-09T08:02:08;3.53;;;2.25;;
11604;SDS011;5858;43.076;25.626;2022-09-09T08:07:36;2.53;;;1.80;;
11604;SDS011;5858;43.076;25.626;2022-09-09T08:10:04;2.58;;;1.88;;
11604;SDS011;5858;43.076;25.626;2022-09-09T08:12:31;4.28;;;2.17;;
11604;SDS011;5858;43.076;25.626;2022-09-09T08:15:13;3.22;;;1.80;;
11604;SDS011;5858;43.076;25.626;2022-09-09T08:17:43;2.58;;;2.10;;
11604;SDS011;5858;43.076;25.626;2022-09-09T08:20:23;2.08;;;1.98;;
11604;SDS011;5858;43.076;25.626;2022-09-09T08:22:52;4.00;;;2.25;;
11604;SDS011;5858;43.076;25.626;2022-09-09T08:25:19;2.83;;;1.95;;
11604;SDS011;5858;43.076;25.626;2022-09-09T08:27:46;3.42;;;2.00;;
11604;SDS011;5858;43.076;25.626;2022-09-09T08:30:13;2.55;;;1.98;;
11604;SDS011;5858;43.076;25.626;2022-09-09T08:32:41;2.28;;;2.08;;
11604;SDS011;5858;43.076;25.626;2022-09-09T08:35:10;2.10;;;1.90;;
11604;SDS011;5858;43.076;25.626;2022-09-09T08:37:44;2.22;;;1.98;;
11604;SDS011;5858;43.076;25.626;2022-09-09T08:40:17;2.22;;;1.85;;
11604;SDS011;5858;43.076;25.626;2022-09-09T08:42:54;2.33;;;1.85;;
11604;SDS011;5858;43.076;25.626;2022-09-09T08:45:25;4.32;;;2.15;;
11604;SDS011;5858;43.076;25.626;2022-09-09T08:48:03;2.50;;;1.95;;
11604;SDS011;5858;43.076;25.626;2022-09-09T08:50:45;2.55;;;2.25;;
11604;SDS011;5858;43.076;25.626;2022-09-09T08:53:18;1.88;;;1.70;;
11604;SDS011;5858;43.076;25.626;2022-09-09T08:55:50;2.47;;;1.80;;
11604;SDS011;5858;43.076;25.626;2022-09-09T08:58:21;3.13;;;2.00;;
11604;SDS011;5858;43.076;25.626;2022-09-09T09:04:02;1.77;;;1.67;;
11604;SDS011;5858;43.076;25.626;2022-09-09T09:06:45;5.50;;;2.00;;
11604;SDS011;5858;43.076;25.626;2022-09-09T09:09:29;3.50;;;2.10;;
11604;SDS011;5858;43.076;25.626;2022-09-09T09:12:06;3.20;;;1.95;;
11604;SDS011;5858;43.076;25.626;2022-09-09T09:14:42;2.22;;;1.60;;
11604;SDS011;5858;43.076;25.626;2022-09-09T09:17:15;2.67;;;1.95;;
11604;SDS011;5858;43.076;25.626;2022-09-09T09:19:45;2.45;;;2.25;;
11604;SDS011;5858;43.076;25.626;2022-09-09T09:22:18;2.42;;;1.80;;
11604;SDS011;5858;43.076;25.626;2022-09-09T09:24:51;2.17;;;1.98;;
11604;SDS011;5858;43.076;25.626;2022-09-09T09:27:21;2.15;;;1.80;;
11604;SDS011;5858;43.076;25.626;2022-09-09T09:29:57;2.25;;;2.00;;
11604;SDS011;5858;43.076;25.626;2022-09-09T09:32:26;2.70;;;1.80;;
11604;SDS011;5858;43.076;25.626;2022-09-09T09:34:58;2.25;;;1.63;;
11604;SDS011;5858;43.076;25.626;2022-09-09T09:37:27;3.50;;;1.70;;
11604;SDS011;5858;43.076;25.626;2022-09-09T09:40:08;2.15;;;1.95;;
11604;SDS011;5858;43.076;25.626;2022-09-09T09:42:37;4.43;;;1.88;;
11604;SDS011;5858;43.076;25.626;2022-09-09T09:45:08;1.92;;;1.52;;
11604;SDS011;5858;43.076;25.626;2022-09-09T09:47:44;5.05;;;1.90;;
11604;SDS011;5858;43.076;25.626;2022-09-09T09:50:16;4.60;;;2.03;;
11604;SDS011;5858;43.076;25.626;2022-09-09T09:52:53;4.43;;;2.00;;
11604;SDS011;5858;43.076;25.626;2022-09-09T09:55:25;2.85;;;2.35;;
11604;SDS011;5858;43.076;25.626;2022-09-09T09:58:02;3.45;;;1.65;;
11604;SDS011;5858;43.076;25.626;2022-09-09T10:00:31;2.63;;;1.85;;
11604;SDS011;5858;43.076;25.626;2022-09-09T10:03:12;2.20;;;2.00;;
11604;SDS011;5858;43.076;25.626;2022-09-09T10:05:48;3.70;;;2.05;;
11604;SDS011;5858;43.076;25.626;2022-09-09T10:08:18;1.67;;;1.50;;
11604;SDS011;5858;43.076;25.626;2022-09-09T10:13:53;4.43;;;2.10;;
11604;SDS011;5858;43.076;25.626;2022-09-09T10:16:39;2.92;;;2.17;;
11604;SDS011;5858;43.076;25.626;2022-09-09T10:19:19;2.40;;;1.77;;
11604;SDS011;5858;43.076;25.626;2022-09-09T10:24:58;2.88;;;2.40;;
11604;SDS011;5858;43.076;25.626;2022-09-09T10:27:44;3.30;;;1.95;;
11604;SDS011;5858;43.076;25.626;2022-09-09T10:30:24;2.85;;;2.10;;
11604;SDS011;5858;43.076;25.626;2022-09-09T10:33:01;2.72;;;1.95;;
11604;SDS011;5858;43.076;25.626;2022-09-09T10:35:35;3.20;;;2.10;;
11604;SDS011;5858;43.076;25.626;2022-09-09T10:38:17;3.05;;;2.10;;
11604;SDS011;5858;43.076;25.626;2022-09-09T10:41:30;2.55;;;1.70;;
11604;SDS011;5858;43.076;25.626;2022-09-09T10:44:14;2.78;;;2.22;;
11604;SDS011;5858;43.076;25.626;2022-09-09T10:46:54;2.83;;;2.40;;
11604;SDS011;5858;43.076;25.626;2022-09-09T10:49:42;2.55;;;2.15;;
11604;SDS011;5858;43.076;25.626;2022-09-09T10:52:31;3.72;;;2.20;;
11604;SDS011;5858;43.076;25.626;2022-09-09T10:55:09;3.85;;;2.00;;
11604;SDS011;5858;43.076;25.626;2022-09-09T10:57:41;2.75;;;1.83;;
11604;SDS011;5858;43.076;25.626;2022-09-09T11:00:15;2.05;;;1.65;;
11604;SDS011;5858;43.076;25.626;2022-09-09T11:05:44;2.08;;;1.83;;
11604;SDS011;5858;43.076;25.626;2022-09-09T11:08:29;2.60;;;2.00;;
11604;SDS011;5858;43.076;25.626;2022-09-09T11:11:21;2.40;;;2.00;;
11604;SDS011;5858;43.076;25.626;2022-09-09T11:13:59;3.03;;;2.15;;
11604;SDS011;5858;43.076;25.626;2022-09-09T11:16:40;2.97;;;1.77;;
11604;SDS011;5858;43.076;25.626;2022-09-09T11:19:14;3.10;;;2.00;;
11604;SDS011;5858;43.076;25.626;2022-09-09T11:21:47;2.38;;;2.10;;
11604;SDS011;5858;43.076;25.626;2022-09-09T11:24:19;3.33;;;2.58;;
11604;SDS011;5858;43.076;25.626;2022-09-09T11:26:50;3.72;;;1.83;;
11604;SDS011;5858;43.076;25.626;2022-09-09T11:29:30;3.45;;;2.30;;
11604;SDS011;5858;43.076;25.626;2022-09-09T11:32:27;4.60;;;2.33;;
11604;SDS011;5858;43.076;25.626;2022-09-09T11:35:10;2.30;;;2.10;;
11604;SDS011;5858;43.076;25.626;2022-09-09T11:37:59;2.65;;;2.40;;
11604;SDS011;5858;43.076;25.626;2022-09-09T11:40:43;4.50;;;2.13;;
11604;SDS011;5858;43.076;25.626;2022-09-09T11:43:12;2.38;;;2.08;;
11604;SDS011;5858;43.076;25.626;2022-09-09T11:45:42;4.57;;;2.33;;
11604;SDS011;5858;43.076;25.626;2022-09-09T11:48:26;3.42;;;2.25;;
11604;SDS011;5858;43.076;25.626;2022-09-09T11:50:58;3.20;;;2.20;;
11604;SDS011;5858;43.076;25.626;2022-09-09T11:53:30;3.10;;;1.85;;
11604;SDS011;5858;43.076;25.626;2022-09-09T11:56:04;3.33;;;2.28;;
11604;SDS011;5858;43.076;25.626;2022-09-09T11:58:38;2.60;;;2.10;;
11604;SDS011;5858;43.076;25.626;2022-09-09T12:01:26;4.43;;;2.75;;
11604;SDS011;5858;43.076;25.626;2022-09-09T12:04:12;3.67;;;2.10;;
11604;SDS011;5858;43.076;25.626;2022-09-09T12:06:56;2.53;;;2.08;;
11604;SDS011;5858;43.076;25.626;2022-09-09T12:09:30;2.22;;;1.90;;
11604;SDS011;5858;43.076;25.626;2022-09-09T12:12:07;2.28;;;2.03;;
11604;SDS011;5858;43.076;25.626;2022-09-09T12:14:54;3.08;;;2.53;;
11604;SDS011;5858;43.076;25.626;2022-09-09T12:20:40;2.53;;;2.33;;
11604;SDS011;5858;43.076;25.626;2022-09-09T12:23:27;3.63;;;2.20;;
11604;SDS011;5858;43.076;25.626;2022-09-09T12:26:07;4.57;;;2.10;;
11604;SDS011;5858;43.076;25.626;2022-09-09T12:29:20;2.50;;;2.30;;
11604;SDS011;5858;43.076;25.626;2022-09-09T12:32:20;2.80;;;2.47;;
11604;SDS011;5858;43.076;25.626;2022-09-09T12:34:52;1.92;;;1.83;;
11604;SDS011;5858;43.076;25.626;2022-09-09T12:37:27;3.72;;;2.25;;
11604;SDS011;5858;43.076;25.626;2022-09-09T12:40:17;3.83;;;1.95;;
11604;SDS011;5858;43.076;25.626;2022-09-09T12:42:47;4.60;;;2.03;;
11604;SDS011;5858;43.076;25.626;2022-09-09T12:45:22;3.70;;;2.00;;
11604;SDS011;5858;43.076;25.626;2022-09-09T12:47:51;3.13;;;2.88;;
11604;SDS011;5858;43.076;25.626;2022-09-09T12:50:23;4.88;;;2.45;;
11604;SDS011;5858;43.076;25.626;2022-09-09T12:52:56;4.70;;;2.67;;
11604;SDS011;5858;43.076;25.626;2022-09-09T12:55:54;3.30;;;2.22;;
11604;SDS011;5858;43.076;25.626;2022-09-09T12:58:32;3.10;;;2.35;;
11604;SDS011;5858;43.076;25.626;2022-09-09T13:01:04;5.05;;;3.45;;
11604;SDS011;5858;43.076;25.626;2022-09-09T13:03:33;4.78;;;2.88;;
11604;SDS011;5858;43.076;25.626;2022-09-09T13:06:13;4.10;;;2.47;;
11604;SDS011;5858;43.076;25.626;2022-09-09T13:08:50;4.28;;;2.42;;
11604;SDS011;5858;43.076;25.626;2022-09-09T13:11:19;3.28;;;2.22;;
11604;SDS011;5858;43.076;25.626;2022-09-09T13:13:50;2.67;;;2.47;;
11604;SDS011;5858;43.076;25.626;2022-09-09T13:19:13;4.00;;;2.15;;
11604;SDS011;5858;43.076;25.626;2022-09-09T13:21:42;3.47;;;2.42;;
11604;SDS011;5858;43.076;25.626;2022-09-09T13:24:24;2.33;;;1.95;;
11604;SDS011;5858;43.076;25.626;2022-09-09T13:26:58;7.25;;;2.60;;
11604;SDS011;5858;43.076;25.626;2022-09-09T13:29:28;5.43;;;2.10;;
11604;SDS011;5858;43.076;25.626;2022-09-09T13:32:03;2.92;;;2.50;;
11604;SDS011;5858;43.076;25.626;2022-09-09T13:34:35;3.85;;;2.47;;
11604;SDS011;5858;43.076;25.626;2022-09-09T13:37:03;4.22;;;2.75;;
11604;SDS011;5858;43.076;25.626;2022-09-09T13:39:34;2.70;;;2.50;;
11604;SDS011;5858;43.076;25.626;2022-09-09T13:42:03;2.55;;;2.35;;
11604;SDS011;5858;43.076;25.626;2022-09-09T13:44:35;3.28;;;2.35;;
11604;SDS011;5858;43.076;25.626;2022-09-09T13:47:16;3.50;;;2.50;;
11604;SDS011;5858;43.076;25.626;2022-09-09T13:49:45;3.05;;;2.58;;
11604;SDS011;5858;43.076;25.626;2022-09-09T13:52:14;3.75;;;2.63;;
11604;SDS011;5858;43.076;25.626;2022-09-09T13:54:46;2.83;;;2.33;;
11604;SDS011;5858;43.076;25.626;2022-09-09T13:57:17;3.17;;;2.88;;
11604;SDS011;5858;43.076;25.626;2022-09-09T13:59:48;3.20;;;2.97;;
11604;SDS011;5858;43.076;25.626;2022-09-09T14:02:16;4.78;;;2.50;;
11604;SDS011;5858;43.076;25.626;2022-09-09T14:04:52;3.20;;;2.90;;
11604;SDS011;5858;43.076;25.626;2022-09-09T14:07:22;9.10;;;3.00;;
11604;SDS011;5858;43.076;25.626;2022-09-09T14:09:52;2.45;;;2.25;;
11604;SDS011;5858;43.076;25.626;2022-09-09T14:12:19;6.50;;;2.85;;
11604;SDS011;5858;43.076;25.626;2022-09-09T14:14:46;2.20;;;2.10;;
11604;SDS011;5858;43.076;25.626;2022-09-09T14:17:15;2.63;;;2.42;;
11604;SDS011;5858;43.076;25.626;2022-09-09T14:19:42;2.35;;;2.15;;
11604;SDS011;5858;43.076;25.626;2022-09-09T14:22:11;2.60;;;2.40;;
11604;SDS011;5858;43.076;25.626;2022-09-09T14:24:38;2.88;;;2.55;;
11604;SDS011;5858;43.076;25.626;2022-09-09T14:27:08;3.25;;;2.17;;
11604;SDS011;5858;43.076;25.626;2022-09-09T14:29:35;3.92;;;2.35;;
11604;SDS011;5858;43.076;25.626;2022-09-09T14:32:02;3.20;;;2.85;;
11604;SDS011;5858;43.076;25.626;2022-09-09T14:34:34;3.15;;;2.60;;
11604;SDS011;5858;43.076;25.626;2022-09-09T14:37:01;2.70;;;2.50;;
11604;SDS011;5858;43.076;25.626;2022-09-09T14:39:29;4.47;;;2.35;;
11604;SDS011;5858;43.076;25.626;2022-09-09T14:41:56;3.03;;;2.40;;
11604;SDS011;5858;43.076;25.626;2022-09-09T14:44:29;2.78;;;2.38;;
11604;SDS011;5858;43.076;25.626;2022-09-09T14:46:57;2.85;;;2.63;;
11604;SDS011;5858;43.076;25.626;2022-09-09T14:49:30;3.13;;;2.17;;
11604;SDS011;5858;43.076;25.626;2022-09-09T14:51:58;2.88;;;2.40;;
11604;SDS011;5858;43.076;25.626;2022-09-09T14:54:26;2.90;;;2.60;;
11604;SDS011;5858;43.076;25.626;2022-09-09T14:56:57;3.05;;;2.50;;
11604;SDS011;5858;43.076;25.626;2022-09-09T14:59:24;4.05;;;2.78;;
11604;SDS011;5858;43.076;25.626;2022-09-09T15:01:55;3.95;;;3.50;;
11604;SDS011;5858;43.076;25.626;2022-09-09T15:04:22;3.25;;;2.95;;
11604;SDS011;5858;43.076;25.626;2022-09-09T15:06:50;3.60;;;3.10;;
11604;SDS011;5858;43.076;25.626;2022-09-09T15:09:19;4.15;;;2.90;;
11604;SDS011;5858;43.076;25.626;2022-09-09T15:11:49;4.22;;;2.88;;
11604;SDS011;5858;43.076;25.626;2022-09-09T15:14:16;4.38;;;3.55;;
11604;SDS011;5858;43.076;25.626;2022-09-09T15:16:43;3.70;;;3.28;;
11604;SDS011;5858;43.076;25.626;2022-09-09T15:19:12;5.93;;;3.55;;
11604;SDS011;5858;43.076;25.626;2022-09-09T15:21:39;4.88;;;3.22;;
11604;SDS011;5858;43.076;25.626;2022-09-09T15:24:09;4.80;;;3.60;;
11604;SDS011;5858;43.076;25.626;2022-09-09T15:26:41;4.88;;;3.80;;
11604;SDS011;5858;43.076;25.626;2022-09-09T15:29:09;4.85;;;3.78;;
11604;SDS011;5858;43.076;25.626;2022-09-09T15:31:39;4.47;;;3.60;;
11604;SDS011;5858;43.076;25.626;2022-09-09T15:34:07;12.00;;;3.80;;
11604;SDS011;5858;43.076;25.626;2022-09-09T15:36:37;6.72;;;3.88;;
11604;SDS011;5858;43.076;25.626;2022-09-09T15:39:10;8.73;;;4.40;;
11604;SDS011;5858;43.076;25.626;2022-09-09T15:41:42;5.50;;;4.13;;
11604;SDS011;5858;43.076;25.626;2022-09-09T15:44:11;5.78;;;4.10;;
11604;SDS011;5858;43.076;25.626;2022-09-09T15:46:40;4.25;;;3.40;;
11604;SDS011;5858;43.076;25.626;2022-09-09T15:49:09;4.20;;;3.65;;
11604;SDS011;5858;43.076;25.626;2022-09-09T15:51:40;5.53;;;4.20;;
11604;SDS011;5858;43.076;25.626;2022-09-09T15:54:09;6.68;;;4.10;;